sensor_id;sensor_type;location;lat;lon;timestamp;temperature;humidity
37984;DHT22;61733;50.882;4.376;2022-07-11T00:00:19;20.10;83.50
37984;DHT22;61733;50.882;4.376;2022-07-11T00:02:45;20.10;83.80
37984;DHT22;61733;50.882;4.376;2022-07-11T00:05:11;20.00;84.00
37984;DHT22;61733;50.882;4.376;2022-07-11T00:07:37;19.90;84.30
37984;DHT22;61733;50.882;4.376;2022-07-11T00:10:04;19.90;84.80
37984;DHT22;61733;50.882;4.376;2022-07-11T00:12:29;19.80;85.10
37984;DHT22;61733;50.882;4.376;2022-07-11T00:14:56;19.80;85.60
37984;DHT22;61733;50.882;4.376;2022-07-11T00:17:22;19.70;85.90
37984;DHT22;61733;50.882;4.376;2022-07-11T00:19:49;19.70;86.30
37984;DHT22;61733;50.882;4.376;2022-07-11T00:22:15;19.60;86.70
37984;DHT22;61733;50.882;4.376;2022-07-11T00:24:41;19.60;87.00
37984;DHT22;61733;50.882;4.376;2022-07-11T00:27:07;19.50;87.20
37984;DHT22;61733;50.882;4.376;2022-07-11T00:29:32;19.50;87.70
37984;DHT22;61733;50.882;4.376;2022-07-11T00:31:58;19.40;88.00
37984;DHT22;61733;50.882;4.376;2022-07-11T00:34:25;19.40;88.50
37984;DHT22;61733;50.882;4.376;2022-07-11T00:36:51;19.30;88.80
37984;DHT22;61733;50.882;4.376;2022-07-11T00:39:17;19.20;89.00
37984;DHT22;61733;50.882;4.376;2022-07-11T00:41:42;19.20;89.70
37984;DHT22;61733;50.882;4.376;2022-07-11T00:44:09;19.20;90.00
37984;DHT22;61733;50.882;4.376;2022-07-11T00:46:35;19.10;90.10
37984;DHT22;61733;50.882;4.376;2022-07-11T00:49:02;19.10;90.40
37984;DHT22;61733;50.882;4.376;2022-07-11T00:51:29;19.10;90.60
37984;DHT22;61733;50.882;4.376;2022-07-11T00:53:57;19.00;90.60
37984;DHT22;61733;50.882;4.376;2022-07-11T00:56:30;18.90;90.80
37984;DHT22;61733;50.882;4.376;2022-07-11T00:58:57;18.90;91.00
37984;DHT22;61733;50.882;4.376;2022-07-11T01:01:24;18.90;91.50
37984;DHT22;61733;50.882;4.376;2022-07-11T01:03:50;18.80;91.30
37984;DHT22;61733;50.882;4.376;2022-07-11T01:06:15;18.70;91.50
37984;DHT22;61733;50.882;4.376;2022-07-11T01:08:41;18.70;91.70
37984;DHT22;61733;50.882;4.376;2022-07-11T01:11:09;18.60;92.00
37984;DHT22;61733;50.882;4.376;2022-07-11T01:13:38;18.60;92.20
37984;DHT22;61733;50.882;4.376;2022-07-11T01:16:13;18.60;92.40
37984;DHT22;61733;50.882;4.376;2022-07-11T01:18:54;18.60;92.60
37984;DHT22;61733;50.882;4.376;2022-07-11T01:21:38;18.50;92.80
37984;DHT22;61733;50.882;4.376;2022-07-11T01:24:05;18.50;93.10
37984;DHT22;61733;50.882;4.376;2022-07-11T01:26:31;18.50;93.20
37984;DHT22;61733;50.882;4.376;2022-07-11T01:29:13;18.40;93.40
37984;DHT22;61733;50.882;4.376;2022-07-11T01:31:41;18.40;93.60
37984;DHT22;61733;50.882;4.376;2022-07-11T01:34:06;18.40;93.80
37984;DHT22;61733;50.882;4.376;2022-07-11T01:36:32;18.30;94.00
37984;DHT22;61733;50.882;4.376;2022-07-11T01:38:58;18.30;94.20
37984;DHT22;61733;50.882;4.376;2022-07-11T01:41:24;18.20;94.40
37984;DHT22;61733;50.882;4.376;2022-07-11T01:43:50;18.20;94.60
37984;DHT22;61733;50.882;4.376;2022-07-11T01:46:16;18.10;94.70
37984;DHT22;61733;50.882;4.376;2022-07-11T01:48:43;18.10;94.80
37984;DHT22;61733;50.882;4.376;2022-07-11T01:51:09;18.00;95.00
37984;DHT22;61733;50.882;4.376;2022-07-11T01:53:35;18.00;95.20
37984;DHT22;61733;50.882;4.376;2022-07-11T01:56:01;18.00;95.50
37984;DHT22;61733;50.882;4.376;2022-07-11T01:58:27;17.90;95.70
37984;DHT22;61733;50.882;4.376;2022-07-11T02:00:59;17.90;96.00
37984;DHT22;61733;50.882;4.376;2022-07-11T02:03:25;17.90;96.30
37984;DHT22;61733;50.882;4.376;2022-07-11T02:05:50;17.90;96.60
37984;DHT22;61733;50.882;4.376;2022-07-11T02:08:16;17.80;96.70
37984;DHT22;61733;50.882;4.376;2022-07-11T02:10:48;17.80;96.90
37984;DHT22;61733;50.882;4.376;2022-07-11T02:13:17;17.80;97.10
37984;DHT22;61733;50.882;4.376;2022-07-11T02:15:44;17.70;97.30
37984;DHT22;61733;50.882;4.376;2022-07-11T02:18:10;17.70;97.50
37984;DHT22;61733;50.882;4.376;2022-07-11T02:20:38;17.70;97.70
37984;DHT22;61733;50.882;4.376;2022-07-11T02:23:05;17.70;98.00
37984;DHT22;61733;50.882;4.376;2022-07-11T02:25:32;17.70;98.10
37984;DHT22;61733;50.882;4.376;2022-07-11T02:27:58;17.60;98.20
37984;DHT22;61733;50.882;4.376;2022-07-11T02:30:24;17.60;98.40
37984;DHT22;61733;50.882;4.376;2022-07-11T02:32:51;17.60;98.60
37984;DHT22;61733;50.882;4.376;2022-07-11T02:35:17;17.60;98.80
37984;DHT22;61733;50.882;4.376;2022-07-11T02:37:43;17.60;99.00
37984;DHT22;61733;50.882;4.376;2022-07-11T02:40:10;17.50;99.00
37984;DHT22;61733;50.882;4.376;2022-07-11T02:42:35;17.40;99.10
37984;DHT22;61733;50.882;4.376;2022-07-11T02:45:02;17.40;99.30
37984;DHT22;61733;50.882;4.376;2022-07-11T02:47:28;17.40;99.40
37984;DHT22;61733;50.882;4.376;2022-07-11T02:49:54;17.30;99.60
37984;DHT22;61733;50.882;4.376;2022-07-11T02:52:20;17.30;99.80
37984;DHT22;61733;50.882;4.376;2022-07-11T02:54:46;17.30;99.90
37984;DHT22;61733;50.882;4.376;2022-07-11T02:57:11;17.30;99.90
37984;DHT22;61733;50.882;4.376;2022-07-11T02:59:37;17.30;99.90
37984;DHT22;61733;50.882;4.376;2022-07-11T03:02:03;17.30;99.90
37984;DHT22;61733;50.882;4.376;2022-07-11T03:04:32;17.20;99.90
37984;DHT22;61733;50.882;4.376;2022-07-11T03:06:59;17.20;99.90
37984;DHT22;61733;50.882;4.376;2022-07-11T03:09:25;17.20;99.90
37984;DHT22;61733;50.882;4.376;2022-07-11T03:11:52;17.20;99.90
37984;DHT22;61733;50.882;4.376;2022-07-11T03:14:21;17.20;99.90
37984;DHT22;61733;50.882;4.376;2022-07-11T03:16:47;17.20;99.90
37984;DHT22;61733;50.882;4.376;2022-07-11T03:19:12;17.20;99.90
37984;DHT22;61733;50.882;4.376;2022-07-11T03:21:38;17.10;99.90
37984;DHT22;61733;50.882;4.376;2022-07-11T03:24:05;17.10;99.90
37984;DHT22;61733;50.882;4.376;2022-07-11T03:26:31;17.10;99.90
37984;DHT22;61733;50.882;4.376;2022-07-11T03:28:56;17.00;99.90
37984;DHT22;61733;50.882;4.376;2022-07-11T03:31:22;17.00;99.90
37984;DHT22;61733;50.882;4.376;2022-07-11T03:33:48;17.00;99.90
37984;DHT22;61733;50.882;4.376;2022-07-11T03:36:13;17.00;99.90
37984;DHT22;61733;50.882;4.376;2022-07-11T03:38:39;17.00;99.90
37984;DHT22;61733;50.882;4.376;2022-07-11T03:41:05;17.00;99.90
37984;DHT22;61733;50.882;4.376;2022-07-11T03:43:31;17.00;99.90
37984;DHT22;61733;50.882;4.376;2022-07-11T03:45:57;16.90;99.90
37984;DHT22;61733;50.882;4.376;2022-07-11T03:48:23;16.90;99.90
37984;DHT22;61733;50.882;4.376;2022-07-11T03:50:49;16.90;99.90
37984;DHT22;61733;50.882;4.376;2022-07-11T03:53:16;16.80;99.90
37984;DHT22;61733;50.882;4.376;2022-07-11T03:55:41;16.80;99.90
37984;DHT22;61733;50.882;4.376;2022-07-11T03:58:07;16.80;99.90
37984;DHT22;61733;50.882;4.376;2022-07-11T04:00:33;16.80;99.90
37984;DHT22;61733;50.882;4.376;2022-07-11T04:02:58;16.80;99.90
37984;DHT22;61733;50.882;4.376;2022-07-11T04:05:25;16.80;99.90
37984;DHT22;61733;50.882;4.376;2022-07-11T04:07:52;16.80;99.90
37984;DHT22;61733;50.882;4.376;2022-07-11T04:10:18;16.80;99.90
37984;DHT22;61733;50.882;4.376;2022-07-11T04:12:44;16.80;99.90
37984;DHT22;61733;50.882;4.376;2022-07-11T04:15:11;16.80;99.90
37984;DHT22;61733;50.882;4.376;2022-07-11T04:17:37;16.80;99.90
37984;DHT22;61733;50.882;4.376;2022-07-11T04:20:04;16.80;99.90
37984;DHT22;61733;50.882;4.376;2022-07-11T04:22:30;16.80;99.90
37984;DHT22;61733;50.882;4.376;2022-07-11T04:24:56;16.80;99.90
37984;DHT22;61733;50.882;4.376;2022-07-11T04:27:22;16.80;99.90
37984;DHT22;61733;50.882;4.376;2022-07-11T04:29:47;16.80;99.90
37984;DHT22;61733;50.882;4.376;2022-07-11T04:32:13;16.80;99.90
37984;DHT22;61733;50.882;4.376;2022-07-11T04:34:42;16.80;99.90
37984;DHT22;61733;50.882;4.376;2022-07-11T04:37:07;16.80;99.90
37984;DHT22;61733;50.882;4.376;2022-07-11T04:39:33;16.90;99.90
37984;DHT22;61733;50.882;4.376;2022-07-11T04:41:59;16.80;99.90
37984;DHT22;61733;50.882;4.376;2022-07-11T04:44:27;16.90;99.90
37984;DHT22;61733;50.882;4.376;2022-07-11T04:46:53;16.90;99.90
37984;DHT22;61733;50.882;4.376;2022-07-11T04:49:18;17.00;99.90
37984;DHT22;61733;50.882;4.376;2022-07-11T04:51:45;16.90;99.90
37984;DHT22;61733;50.882;4.376;2022-07-11T04:54:11;17.00;99.90
37984;DHT22;61733;50.882;4.376;2022-07-11T04:56:36;17.00;99.90
37984;DHT22;61733;50.882;4.376;2022-07-11T04:59:03;17.00;99.90
37984;DHT22;61733;50.882;4.376;2022-07-11T05:01:29;17.10;99.90
37984;DHT22;61733;50.882;4.376;2022-07-11T05:03:56;17.10;99.90
37984;DHT22;61733;50.882;4.376;2022-07-11T05:06:21;17.20;99.90
37984;DHT22;61733;50.882;4.376;2022-07-11T05:08:47;17.20;99.90
37984;DHT22;61733;50.882;4.376;2022-07-11T05:11:13;17.30;99.90
37984;DHT22;61733;50.882;4.376;2022-07-11T05:13:39;17.30;99.90
37984;DHT22;61733;50.882;4.376;2022-07-11T05:16:06;17.30;99.90
37984;DHT22;61733;50.882;4.376;2022-07-11T05:18:32;17.40;99.90
37984;DHT22;61733;50.882;4.376;2022-07-11T05:20:58;17.40;99.90
37984;DHT22;61733;50.882;4.376;2022-07-11T05:23:24;17.50;99.90
37984;DHT22;61733;50.882;4.376;2022-07-11T05:25:49;17.50;99.90
37984;DHT22;61733;50.882;4.376;2022-07-11T05:28:15;17.50;99.90
37984;DHT22;61733;50.882;4.376;2022-07-11T05:30:41;17.60;99.90
37984;DHT22;61733;50.882;4.376;2022-07-11T05:33:07;17.60;99.90
37984;DHT22;61733;50.882;4.376;2022-07-11T05:35:32;17.60;99.90
37984;DHT22;61733;50.882;4.376;2022-07-11T05:37:58;17.70;99.90
37984;DHT22;61733;50.882;4.376;2022-07-11T05:40:24;17.80;99.90
37984;DHT22;61733;50.882;4.376;2022-07-11T05:42:50;17.90;99.90
37984;DHT22;61733;50.882;4.376;2022-07-11T05:45:16;17.90;99.90
37984;DHT22;61733;50.882;4.376;2022-07-11T05:47:41;18.00;99.90
37984;DHT22;61733;50.882;4.376;2022-07-11T05:50:08;18.00;99.90
37984;DHT22;61733;50.882;4.376;2022-07-11T05:52:34;18.00;99.90
37984;DHT22;61733;50.882;4.376;2022-07-11T05:54:59;18.10;99.90
37984;DHT22;61733;50.882;4.376;2022-07-11T05:57:25;18.10;99.90
37984;DHT22;61733;50.882;4.376;2022-07-11T05:59:51;18.10;99.90
37984;DHT22;61733;50.882;4.376;2022-07-11T06:02:16;18.20;99.90
37984;DHT22;61733;50.882;4.376;2022-07-11T06:04:44;18.20;99.90
37984;DHT22;61733;50.882;4.376;2022-07-11T06:07:11;18.30;99.90
37984;DHT22;61733;50.882;4.376;2022-07-11T06:09:37;18.30;99.90
37984;DHT22;61733;50.882;4.376;2022-07-11T06:12:03;18.40;99.90
37984;DHT22;61733;50.882;4.376;2022-07-11T06:14:29;18.50;99.90
37984;DHT22;61733;50.882;4.376;2022-07-11T06:16:55;18.50;99.90
37984;DHT22;61733;50.882;4.376;2022-07-11T06:19:21;18.60;99.90
37984;DHT22;61733;50.882;4.376;2022-07-11T06:21:47;18.60;99.90
37984;DHT22;61733;50.882;4.376;2022-07-11T06:24:13;18.70;99.90
37984;DHT22;61733;50.882;4.376;2022-07-11T06:26:38;18.70;99.90
37984;DHT22;61733;50.882;4.376;2022-07-11T06:29:04;18.70;99.90
37984;DHT22;61733;50.882;4.376;2022-07-11T06:31:30;18.80;99.90
37984;DHT22;61733;50.882;4.376;2022-07-11T06:33:56;18.80;99.90
37984;DHT22;61733;50.882;4.376;2022-07-11T06:36:26;18.80;99.90
37984;DHT22;61733;50.882;4.376;2022-07-11T06:38:52;18.80;99.90
37984;DHT22;61733;50.882;4.376;2022-07-11T06:41:19;18.80;99.90
37984;DHT22;61733;50.882;4.376;2022-07-11T06:43:45;18.80;99.90
37984;DHT22;61733;50.882;4.376;2022-07-11T06:46:17;18.90;99.90
37984;DHT22;61733;50.882;4.376;2022-07-11T06:48:44;18.90;99.90
37984;DHT22;61733;50.882;4.376;2022-07-11T06:51:11;19.00;99.90
37984;DHT22;61733;50.882;4.376;2022-07-11T06:53:36;19.00;99.90
37984;DHT22;61733;50.882;4.376;2022-07-11T06:56:02;19.10;99.90
37984;DHT22;61733;50.882;4.376;2022-07-11T06:58:28;19.10;99.90
37984;DHT22;61733;50.882;4.376;2022-07-11T07:01:04;19.10;99.90
37984;DHT22;61733;50.882;4.376;2022-07-11T07:03:34;19.20;99.90
37984;DHT22;61733;50.882;4.376;2022-07-11T07:06:01;19.20;99.90
37984;DHT22;61733;50.882;4.376;2022-07-11T07:08:28;19.20;99.90
37984;DHT22;61733;50.882;4.376;2022-07-11T07:10:55;19.20;99.90
37984;DHT22;61733;50.882;4.376;2022-07-11T07:13:21;19.30;99.90
37984;DHT22;61733;50.882;4.376;2022-07-11T07:15:49;19.30;99.90
37984;DHT22;61733;50.882;4.376;2022-07-11T07:18:15;19.40;99.90
37984;DHT22;61733;50.882;4.376;2022-07-11T07:20:41;19.40;99.90
37984;DHT22;61733;50.882;4.376;2022-07-11T07:23:08;19.50;99.90
37984;DHT22;61733;50.882;4.376;2022-07-11T07:25:34;19.50;99.90
37984;DHT22;61733;50.882;4.376;2022-07-11T07:28:00;19.60;99.90
37984;DHT22;61733;50.882;4.376;2022-07-11T07:30:26;19.70;99.90
37984;DHT22;61733;50.882;4.376;2022-07-11T07:32:52;19.70;99.90
37984;DHT22;61733;50.882;4.376;2022-07-11T07:35:17;19.80;99.90
37984;DHT22;61733;50.882;4.376;2022-07-11T07:37:45;19.90;99.90
37984;DHT22;61733;50.882;4.376;2022-07-11T07:40:10;20.00;99.90
37984;DHT22;61733;50.882;4.376;2022-07-11T07:42:36;20.00;99.90
37984;DHT22;61733;50.882;4.376;2022-07-11T07:45:02;20.10;99.90
37984;DHT22;61733;50.882;4.376;2022-07-11T07:47:28;20.10;99.90
37984;DHT22;61733;50.882;4.376;2022-07-11T07:49:55;20.20;99.90
37984;DHT22;61733;50.882;4.376;2022-07-11T07:52:21;20.30;99.90
37984;DHT22;61733;50.882;4.376;2022-07-11T07:54:47;20.30;99.90
37984;DHT22;61733;50.882;4.376;2022-07-11T07:57:13;20.40;99.90
37984;DHT22;61733;50.882;4.376;2022-07-11T07:59:39;20.50;99.90
37984;DHT22;61733;50.882;4.376;2022-07-11T08:02:05;20.50;99.90
37984;DHT22;61733;50.882;4.376;2022-07-11T08:04:31;20.60;99.90
37984;DHT22;61733;50.882;4.376;2022-07-11T08:06:57;20.70;99.90
37984;DHT22;61733;50.882;4.376;2022-07-11T08:09:25;20.70;99.90
37984;DHT22;61733;50.882;4.376;2022-07-11T08:11:50;20.80;99.90
37984;DHT22;61733;50.882;4.376;2022-07-11T08:14:16;20.80;99.90
37984;DHT22;61733;50.882;4.376;2022-07-11T08:16:42;20.90;99.90
37984;DHT22;61733;50.882;4.376;2022-07-11T08:19:08;21.00;99.90
37984;DHT22;61733;50.882;4.376;2022-07-11T08:21:37;21.00;99.90
37984;DHT22;61733;50.882;4.376;2022-07-11T08:24:03;21.10;99.90
37984;DHT22;61733;50.882;4.376;2022-07-11T08:26:30;21.20;99.90
37984;DHT22;61733;50.882;4.376;2022-07-11T08:28:56;21.30;99.90
37984;DHT22;61733;50.882;4.376;2022-07-11T08:31:23;21.40;99.90
37984;DHT22;61733;50.882;4.376;2022-07-11T08:33:48;21.40;99.90
37984;DHT22;61733;50.882;4.376;2022-07-11T08:36:14;21.50;99.90
37984;DHT22;61733;50.882;4.376;2022-07-11T08:38:40;21.60;99.90
37984;DHT22;61733;50.882;4.376;2022-07-11T08:41:11;21.60;99.90
37984;DHT22;61733;50.882;4.376;2022-07-11T08:43:37;21.70;99.90
37984;DHT22;61733;50.882;4.376;2022-07-11T08:46:03;21.80;99.90
37984;DHT22;61733;50.882;4.376;2022-07-11T08:48:31;21.90;99.90
37984;DHT22;61733;50.882;4.376;2022-07-11T08:50:59;22.00;99.90
37984;DHT22;61733;50.882;4.376;2022-07-11T08:53:26;22.10;99.90
37984;DHT22;61733;50.882;4.376;2022-07-11T08:55:53;22.20;99.90
37984;DHT22;61733;50.882;4.376;2022-07-11T08:58:20;22.20;99.90
37984;DHT22;61733;50.882;4.376;2022-07-11T09:00:49;22.20;99.80
37984;DHT22;61733;50.882;4.376;2022-07-11T09:03:15;22.30;99.60
37984;DHT22;61733;50.882;4.376;2022-07-11T09:05:43;22.40;99.60
37984;DHT22;61733;50.882;4.376;2022-07-11T09:08:09;22.40;99.40
37984;DHT22;61733;50.882;4.376;2022-07-11T09:10:38;22.50;99.40
37984;DHT22;61733;50.882;4.376;2022-07-11T09:13:10;22.60;99.40
37984;DHT22;61733;50.882;4.376;2022-07-11T09:15:44;22.70;99.60
37984;DHT22;61733;50.882;4.376;2022-07-11T09:18:34;22.70;99.10
37984;DHT22;61733;50.882;4.376;2022-07-11T09:21:06;22.80;98.90
37984;DHT22;61733;50.882;4.376;2022-07-11T09:23:52;22.90;98.80
37984;DHT22;61733;50.882;4.376;2022-07-11T09:26:39;22.90;98.70
37984;DHT22;61733;50.882;4.376;2022-07-11T09:29:09;23.00;98.40
37984;DHT22;61733;50.882;4.376;2022-07-11T09:31:38;23.00;98.00
37984;DHT22;61733;50.882;4.376;2022-07-11T09:34:06;23.00;97.40
37984;DHT22;61733;50.882;4.376;2022-07-11T09:36:51;23.00;97.10
37984;DHT22;61733;50.882;4.376;2022-07-11T09:39:25;23.00;96.90
37984;DHT22;61733;50.882;4.376;2022-07-11T09:41:52;23.10;97.10
37984;DHT22;61733;50.882;4.376;2022-07-11T09:44:36;23.10;97.30
37984;DHT22;61733;50.882;4.376;2022-07-11T09:47:08;23.20;96.90
37984;DHT22;61733;50.882;4.376;2022-07-11T09:49:36;23.20;96.90
37984;DHT22;61733;50.882;4.376;2022-07-11T09:52:14;23.30;96.90
37984;DHT22;61733;50.882;4.376;2022-07-11T09:57:39;23.40;96.20
37984;DHT22;61733;50.882;4.376;2022-07-11T10:00:10;23.40;95.90
37984;DHT22;61733;50.882;4.376;2022-07-11T10:02:37;23.50;96.00
37984;DHT22;61733;50.882;4.376;2022-07-11T10:05:04;23.60;96.10
37984;DHT22;61733;50.882;4.376;2022-07-11T10:07:30;23.70;96.00
37984;DHT22;61733;50.882;4.376;2022-07-11T10:10:00;23.70;95.80
37984;DHT22;61733;50.882;4.376;2022-07-11T10:12:27;23.80;95.70
37984;DHT22;61733;50.882;4.376;2022-07-11T10:14:56;23.90;95.60
37984;DHT22;61733;50.882;4.376;2022-07-11T10:22:56;24.10;95.40
37984;DHT22;61733;50.882;4.376;2022-07-11T10:25:43;24.20;95.40
37984;DHT22;61733;50.882;4.376;2022-07-11T10:28:33;24.30;95.10
37984;DHT22;61733;50.882;4.376;2022-07-11T10:31:01;24.30;94.70
37984;DHT22;61733;50.882;4.376;2022-07-11T10:33:28;24.40;94.80
37984;DHT22;61733;50.882;4.376;2022-07-11T10:35:57;24.40;94.10
37984;DHT22;61733;50.882;4.376;2022-07-11T10:38:23;24.50;94.00
37984;DHT22;61733;50.882;4.376;2022-07-11T10:40:51;24.50;93.70
37984;DHT22;61733;50.882;4.376;2022-07-11T10:45:57;24.50;93.40
37984;DHT22;61733;50.882;4.376;2022-07-11T10:48:24;24.60;93.30
37984;DHT22;61733;50.882;4.376;2022-07-11T10:53:49;24.60;92.80
37984;DHT22;61733;50.882;4.376;2022-07-11T10:56:20;24.60;92.70
37984;DHT22;61733;50.882;4.376;2022-07-11T10:59:20;24.60;92.60
37984;DHT22;61733;50.882;4.376;2022-07-11T11:02:12;24.70;92.50
37984;DHT22;61733;50.882;4.376;2022-07-11T11:07:10;24.80;91.80
37984;DHT22;61733;50.882;4.376;2022-07-11T11:09:52;24.80;91.80
37984;DHT22;61733;50.882;4.376;2022-07-11T11:12:18;24.90;91.60
37984;DHT22;61733;50.882;4.376;2022-07-11T11:14:43;24.90;91.40
37984;DHT22;61733;50.882;4.376;2022-07-11T11:17:34;25.00;91.10
37984;DHT22;61733;50.882;4.376;2022-07-11T11:20:02;25.00;90.40
37984;DHT22;61733;50.882;4.376;2022-07-11T11:22:28;25.10;90.40
37984;DHT22;61733;50.882;4.376;2022-07-11T11:24:56;25.10;90.60
37984;DHT22;61733;50.882;4.376;2022-07-11T11:27:24;25.20;90.80
37984;DHT22;61733;50.882;4.376;2022-07-11T11:29:52;25.20;90.90
37984;DHT22;61733;50.882;4.376;2022-07-11T11:32:19;25.30;90.90
37984;DHT22;61733;50.882;4.376;2022-07-11T11:34:46;25.40;90.80
37984;DHT22;61733;50.882;4.376;2022-07-11T11:37:12;25.40;90.40
37984;DHT22;61733;50.882;4.376;2022-07-11T11:39:39;25.50;90.10
37984;DHT22;61733;50.882;4.376;2022-07-11T11:42:13;25.50;89.30
37984;DHT22;61733;50.882;4.376;2022-07-11T11:44:56;25.50;88.60
37984;DHT22;61733;50.882;4.376;2022-07-11T11:47:23;25.50;88.00
37984;DHT22;61733;50.882;4.376;2022-07-11T11:49:49;25.50;87.90
37984;DHT22;61733;50.882;4.376;2022-07-11T11:52:16;25.60;87.80
37984;DHT22;61733;50.882;4.376;2022-07-11T11:54:43;25.60;86.80
37984;DHT22;61733;50.882;4.376;2022-07-11T11:57:11;25.60;85.90
37984;DHT22;61733;50.882;4.376;2022-07-11T11:59:37;25.70;86.20
37984;DHT22;61733;50.882;4.376;2022-07-11T12:02:04;25.70;85.30
37984;DHT22;61733;50.882;4.376;2022-07-11T12:04:31;25.70;85.40
37984;DHT22;61733;50.882;4.376;2022-07-11T12:07:00;25.80;85.60
37984;DHT22;61733;50.882;4.376;2022-07-11T12:09:27;25.80;85.10
37984;DHT22;61733;50.882;4.376;2022-07-11T12:12:20;25.80;84.50
37984;DHT22;61733;50.882;4.376;2022-07-11T12:15:06;25.90;83.70
37984;DHT22;61733;50.882;4.376;2022-07-11T12:17:32;25.90;83.30
37984;DHT22;61733;50.882;4.376;2022-07-11T12:19:58;25.90;83.30
37984;DHT22;61733;50.882;4.376;2022-07-11T12:22:24;25.90;83.40
37984;DHT22;61733;50.882;4.376;2022-07-11T12:24:52;26.00;83.20
37984;DHT22;61733;50.882;4.376;2022-07-11T12:27:24;26.00;82.00
37984;DHT22;61733;50.882;4.376;2022-07-11T12:29:50;26.00;79.70
37984;DHT22;61733;50.882;4.376;2022-07-11T12:32:21;26.10;79.80
37984;DHT22;61733;50.882;4.376;2022-07-11T12:34:50;26.10;80.80
37984;DHT22;61733;50.882;4.376;2022-07-11T12:37:20;26.10;79.80
37984;DHT22;61733;50.882;4.376;2022-07-11T12:39:54;26.20;79.50
37984;DHT22;61733;50.882;4.376;2022-07-11T12:42:28;26.20;78.70
37984;DHT22;61733;50.882;4.376;2022-07-11T12:45:03;26.30;78.70
37984;DHT22;61733;50.882;4.376;2022-07-11T12:47:40;26.40;78.40
37984;DHT22;61733;50.882;4.376;2022-07-11T12:52:41;26.60;77.70
37984;DHT22;61733;50.882;4.376;2022-07-11T12:55:10;26.60;76.60
37984;DHT22;61733;50.882;4.376;2022-07-11T12:57:37;26.60;75.60
37984;DHT22;61733;50.882;4.376;2022-07-11T13:00:14;26.70;75.80
37984;DHT22;61733;50.882;4.376;2022-07-11T13:02:51;26.80;75.80
37984;DHT22;61733;50.882;4.376;2022-07-11T13:05:18;26.80;75.50
37984;DHT22;61733;50.882;4.376;2022-07-11T13:07:44;26.90;75.90
37984;DHT22;61733;50.882;4.376;2022-07-11T13:10:29;26.90;74.50
37984;DHT22;61733;50.882;4.376;2022-07-11T13:13:16;26.90;72.60
37984;DHT22;61733;50.882;4.376;2022-07-11T13:15:43;27.00;72.20
37984;DHT22;61733;50.882;4.376;2022-07-11T13:18:12;27.00;71.50
37984;DHT22;61733;50.882;4.376;2022-07-11T13:20:39;27.10;72.20
37984;DHT22;61733;50.882;4.376;2022-07-11T13:23:05;27.10;72.10
37984;DHT22;61733;50.882;4.376;2022-07-11T13:25:33;27.20;71.60
37984;DHT22;61733;50.882;4.376;2022-07-11T13:27:59;27.20;71.80
37984;DHT22;61733;50.882;4.376;2022-07-11T13:30:26;27.30;71.80
37984;DHT22;61733;50.882;4.376;2022-07-11T13:32:56;27.40;70.90
37984;DHT22;61733;50.882;4.376;2022-07-11T13:35:22;27.40;70.30
37984;DHT22;61733;50.882;4.376;2022-07-11T13:37:48;27.50;70.10
37984;DHT22;61733;50.882;4.376;2022-07-11T13:40:16;27.60;69.50
37984;DHT22;61733;50.882;4.376;2022-07-11T13:42:43;27.70;70.20
37984;DHT22;61733;50.882;4.376;2022-07-11T13:45:16;27.70;69.90
37984;DHT22;61733;50.882;4.376;2022-07-11T13:47:42;27.80;69.10
37984;DHT22;61733;50.882;4.376;2022-07-11T13:50:08;27.80;69.10
37984;DHT22;61733;50.882;4.376;2022-07-11T13:52:35;27.90;69.20
37984;DHT22;61733;50.882;4.376;2022-07-11T13:55:01;28.00;69.50
37984;DHT22;61733;50.882;4.376;2022-07-11T13:57:28;28.20;69.30
37984;DHT22;61733;50.882;4.376;2022-07-11T13:59:54;28.20;68.70
37984;DHT22;61733;50.882;4.376;2022-07-11T14:02:22;28.40;69.00
37984;DHT22;61733;50.882;4.376;2022-07-11T14:04:48;28.40;69.00
37984;DHT22;61733;50.882;4.376;2022-07-11T14:07:14;28.60;68.30
37984;DHT22;61733;50.882;4.376;2022-07-11T14:09:42;28.80;67.60
37984;DHT22;61733;50.882;4.376;2022-07-11T14:12:09;28.90;67.20
37984;DHT22;61733;50.882;4.376;2022-07-11T14:14:36;29.00;67.20
37984;DHT22;61733;50.882;4.376;2022-07-11T14:17:03;29.10;66.40
37984;DHT22;61733;50.882;4.376;2022-07-11T14:19:29;29.10;65.80
37984;DHT22;61733;50.882;4.376;2022-07-11T14:21:56;29.30;66.80
37984;DHT22;61733;50.882;4.376;2022-07-11T14:24:22;29.30;65.80
37984;DHT22;61733;50.882;4.376;2022-07-11T14:26:48;29.40;65.10
37984;DHT22;61733;50.882;4.376;2022-07-11T14:29:15;29.60;65.60
37984;DHT22;61733;50.882;4.376;2022-07-11T14:31:42;29.70;63.00
37984;DHT22;61733;50.882;4.376;2022-07-11T14:34:08;29.80;62.50
37984;DHT22;61733;50.882;4.376;2022-07-11T14:36:34;29.90;62.70
37984;DHT22;61733;50.882;4.376;2022-07-11T14:39:00;30.00;62.50
37984;DHT22;61733;50.882;4.376;2022-07-11T14:41:26;30.10;62.10
37984;DHT22;61733;50.882;4.376;2022-07-11T14:43:51;30.20;61.60
37984;DHT22;61733;50.882;4.376;2022-07-11T14:46:17;30.30;61.10
37984;DHT22;61733;50.882;4.376;2022-07-11T14:48:43;30.40;60.90
37984;DHT22;61733;50.882;4.376;2022-07-11T14:51:09;30.50;60.60
37984;DHT22;61733;50.882;4.376;2022-07-11T14:53:36;30.60;59.90
37984;DHT22;61733;50.882;4.376;2022-07-11T14:56:03;30.70;59.60
37984;DHT22;61733;50.882;4.376;2022-07-11T14:58:30;30.80;59.10
37984;DHT22;61733;50.882;4.376;2022-07-11T15:00:55;30.80;58.80
37984;DHT22;61733;50.882;4.376;2022-07-11T15:03:21;30.80;58.50
37984;DHT22;61733;50.882;4.376;2022-07-11T15:06:06;30.90;57.90
37984;DHT22;61733;50.882;4.376;2022-07-11T15:08:33;30.90;57.70
37984;DHT22;61733;50.882;4.376;2022-07-11T15:11:18;31.00;57.40
37984;DHT22;61733;50.882;4.376;2022-07-11T15:14:03;31.00;56.80
37984;DHT22;61733;50.882;4.376;2022-07-11T15:16:30;31.00;56.80
37984;DHT22;61733;50.882;4.376;2022-07-11T15:18:58;30.90;56.40
37984;DHT22;61733;50.882;4.376;2022-07-11T15:21:24;30.80;55.90
37984;DHT22;61733;50.882;4.376;2022-07-11T15:23:50;30.70;56.00
37984;DHT22;61733;50.882;4.376;2022-07-11T15:26:22;30.70;56.00
37984;DHT22;61733;50.882;4.376;2022-07-11T15:28:52;30.80;56.20
37984;DHT22;61733;50.882;4.376;2022-07-11T15:31:19;31.00;56.00
37984;DHT22;61733;50.882;4.376;2022-07-11T15:33:45;31.10;55.90
37984;DHT22;61733;50.882;4.376;2022-07-11T15:36:14;31.30;55.90
37984;DHT22;61733;50.882;4.376;2022-07-11T15:38:40;31.40;55.80
37984;DHT22;61733;50.882;4.376;2022-07-11T15:41:06;31.40;54.60
37984;DHT22;61733;50.882;4.376;2022-07-11T15:43:32;31.40;54.30
37984;DHT22;61733;50.882;4.376;2022-07-11T15:45:59;31.40;54.30
37984;DHT22;61733;50.882;4.376;2022-07-11T15:48:27;31.50;54.30
37984;DHT22;61733;50.882;4.376;2022-07-11T15:50:54;31.50;53.80
37984;DHT22;61733;50.882;4.376;2022-07-11T15:53:20;31.50;53.40